Date,TemperatureHighF,TemperatureAvgF,TemperatureLowF,DewpointHighF,DewpointAvgF,DewpointLowF,HumidityHigh,HumidityAvg,HumidityLow,PressureMaxIn,PressureMinIn,WindSpeedMaxMPH,WindSpeedAvgMPH,GustSpeedMaxMPH,PrecipitationSumIn
2014-1-1,54,51,46,50,48,43,97,89,82,29.91,29.76,3,0,6,0.24
2014-1-2,64,54,44,49,44,42,100,71,49,29.92,29.84,5,1,10,0.01
2014-1-3,51,45,43,45,42,39,100,89,75,29.89,29.73,4,0,8,0.14
2014-1-4,53,29,27,43,19,12,80,66,45,30.03,29.87,6,1,11,0.01
2014-1-5,33,28,22,27,24,16,90,83,77,30.03,29.49,9,1,16,0.00
2014-1-6,22,20,20,16,16,16,81,81,80,29.74,29.50,10,10,16,0.00
2014-1-7,53,48,44,43,41,39,83,76,65,29.61,29.47,4,2,6,0.01
2014-1-9,23,20,18,16,9,4,81,64,47,30.22,29.99,2,0,4,0.01
2014-1-10,36,31,22,34,27,17,92,85,78,29.98,29.42,2,0,4,0.34
2014-1-11,43,38,34,42,35,25,100,90,71,29.40,29.00,12,2,20,0.24
2014-1-12,44,35,32,30,26,24,78,70,57,29.63,29.33,10,2,17,0.00
2014-1-13,46,39,32,36,31,26,88,75,64,29.47,29.26,8,1,12,0.00
2014-1-14,47,34,23,30,25,18,90,71,54,29.50,29.36,14,2,19,0.01
2014-1-15,32,29,27,18,16,12,60,56,52,29.44,29.41,15,5,23,0.00
2014-1-17,35,28,20,22,17,11,68,62,54,29.84,29.71,4,2,8,0.04
2014-1-18,21,21,21,10,10,10,62,62,62,29.83,29.83,2,2,4,0.00
2014-1-19,32,28,26,20,18,16,71,65,57,29.55,29.49,9,2,14,0.00
2014-1-20,28,22,18,25,11,5,86,63,47,30.01,29.46,8,3,14,0.00
2014-1-21,18,18,18,6,6,6,59,59,59,30.14,30.00,4,4,9,0.00
2014-1-22,18,18,18,6,6,6,59,59,59,30.12,29.89,4,4,9,0.00
2014-1-23,18,18,18,6,6,6,59,59,59,30.39,29.89,4,4,9,0.00
2014-1-24,18,18,18,6,6,6,59,59,59,30.38,29.48,4,4,9,0.00
2014-1-25,18,18,18,6,6,6,59,59,59,29.71,29.23,4,4,9,0.00
2014-1-26,18,18,18,6,6,6,59,59,59,29.72,29.33,4,4,9,0.00
2014-1-27,18,18,18,6,6,6,59,59,59,30.22,29.36,4,4,9,0.00
2014-1-28,18,15,11,6,-1,-12,59,50,34,30.28,30.10,5,4,10,0.01
2014-1-29,22,15,11,2,-7,-12,45,37,34,30.13,30.01,13,5,21,0.00
2014-1-30,26,21,19,18,3,-2,72,45,39,30.10,29.74,6,4,9,0.00
2014-1-31,39,30,26,23,18,14,72,63,52,30.09,29.78,8,1,10,0.04